createdAt,value
2022-11-29T00:00:15.147Z,8.45
2022-11-29T00:01:15.172Z,8.45
2022-11-29T00:02:15.216Z,8.46
2022-11-29T00:03:15.308Z,8.48
2022-11-29T00:04:15.132Z,8.48
2022-11-29T00:05:15.090Z,8.49
2022-11-29T00:06:15.076Z,8.48
2022-11-29T00:07:15.105Z,8.49
2022-11-29T00:08:15.055Z,8.51
2022-11-29T00:09:15.074Z,8.49
2022-11-29T00:10:15.045Z,8.51
2022-11-29T00:11:15.010Z,8.49
2022-11-29T00:12:14.993Z,8.51
2022-11-29T00:13:15.078Z,8.48
2022-11-29T00:14:15.008Z,8.48
2022-11-29T00:15:15.741Z,8.48
2022-11-29T00:16:15.057Z,8.49
2022-11-29T00:17:14.968Z,8.46
2022-11-29T00:18:14.921Z,8.49
2022-11-29T00:19:14.910Z,8.46
2022-11-29T00:20:14.952Z,8.46
2022-11-29T00:21:14.893Z,8.48
2022-11-29T00:22:14.905Z,8.46
2022-11-29T00:23:14.866Z,8.48
2022-11-29T00:24:14.890Z,8.45
2022-11-29T00:25:14.857Z,8.49
2022-11-29T00:26:14.881Z,8.48
2022-11-29T00:27:14.827Z,8.49
2022-11-29T00:28:14.894Z,8.49
2022-11-29T00:29:14.825Z,8.49
2022-11-29T00:30:14.860Z,8.48
2022-11-29T00:31:14.834Z,8.46
2022-11-29T00:32:14.811Z,8.48
2022-11-29T00:33:14.757Z,8.48
2022-11-29T00:34:14.773Z,8.46
2022-11-29T00:35:14.736Z,8.48
2022-11-29T00:36:14.784Z,8.48
2022-11-29T00:37:14.772Z,8.48
2022-11-29T00:38:14.732Z,8.51
2022-11-29T00:39:14.720Z,8.51
2022-11-29T00:40:14.722Z,8.53
2022-11-29T00:41:14.691Z,8.53
2022-11-29T00:42:14.703Z,8.53
2022-11-29T00:43:14.687Z,8.52
2022-11-29T00:44:19.929Z,8.55
2022-11-29T00:45:14.665Z,8.53
2022-11-29T00:46:14.752Z,8.52
2022-11-29T00:47:14.681Z,8.49
2022-11-29T00:48:14.624Z,8.49
2022-11-29T00:49:14.593Z,8.48
2022-11-29T00:50:14.609Z,8.45
2022-11-29T00:51:14.620Z,8.46
2022-11-29T00:52:14.651Z,8.46
2022-11-29T00:53:14.619Z,8.46
2022-11-29T00:54:14.610Z,8.44
2022-11-29T00:55:14.542Z,8.42
2022-11-29T00:56:14.528Z,8.44
2022-11-29T00:57:14.527Z,8.42
2022-11-29T00:58:14.493Z,8.44
2022-11-29T00:59:14.562Z,8.42
2022-11-29T01:00:14.515Z,8.42
2022-11-29T01:01:14.520Z,8.42
2022-11-29T01:02:14.507Z,8.42
2022-11-29T01:03:14.461Z,8.42
2022-11-29T01:04:14.432Z,8.41
2022-11-29T01:05:14.784Z,8.41
2022-11-29T01:06:14.484Z,8.41
2022-11-29T01:07:14.485Z,8.38
2022-11-29T01:08:14.480Z,8.41
2022-11-29T01:09:14.455Z,8.38
2022-11-29T01:10:14.398Z,8.38
2022-11-29T01:11:14.485Z,8.38
2022-11-29T01:12:14.369Z,8.37
2022-11-29T01:13:14.406Z,8.38
2022-11-29T01:14:14.346Z,8.37
2022-11-29T01:15:14.346Z,8.38
2022-11-29T01:16:14.398Z,8.37
2022-11-29T01:17:14.309Z,8.37
2022-11-29T01:18:14.361Z,8.37
2022-11-29T01:19:14.343Z,8.36
2022-11-29T01:20:14.318Z,8.36
2022-11-29T01:21:14.261Z,8.38
2022-11-29T01:22:14.269Z,8.36
2022-11-29T01:23:14.246Z,8.36
2022-11-29T01:24:14.238Z,8.37
2022-11-29T01:25:14.249Z,8.38
2022-11-29T01:26:14.221Z,8.37
2022-11-29T01:27:14.209Z,8.36
2022-11-29T01:28:14.235Z,8.36
2022-11-29T01:29:14.220Z,8.38
2022-11-29T01:30:14.186Z,8.38
2022-11-29T01:31:14.223Z,8.38
2022-11-29T01:32:14.139Z,8.37
2022-11-29T01:33:14.159Z,8.37
2022-11-29T01:34:14.132Z,8.41
2022-11-29T01:35:14.145Z,8.41
2022-11-29T01:36:14.124Z,8.42
2022-11-29T01:37:14.103Z,8.42
2022-11-29T01:38:14.070Z,8.44
2022-11-29T01:39:14.108Z,8.45
2022-11-29T01:40:14.080Z,8.46
2022-11-29T01:41:14.047Z,8.48
2022-11-29T01:42:14.098Z,8.46
2022-11-29T01:43:14.064Z,8.51
2022-11-29T01:44:14.022Z,8.51
2022-11-29T01:45:14.108Z,8.53
2022-11-29T01:46:14.025Z,8.55
2022-11-29T01:47:13.992Z,8.56
2022-11-29T01:48:13.971Z,8.58
2022-11-29T01:49:13.980Z,8.56
2022-11-29T01:50:13.988Z,8.58
2022-11-29T01:51:13.966Z,8.55
2022-11-29T01:52:13.947Z,8.55
2022-11-29T01:53:13.969Z,8.53
2022-11-29T01:54:13.922Z,8.52
2022-11-29T01:55:13.984Z,8.51
2022-11-29T01:56:13.963Z,8.49
2022-11-29T01:57:13.917Z,8.51
2022-11-29T01:58:13.888Z,8.46
2022-11-29T01:59:13.867Z,8.45
2022-11-29T02:00:13.872Z,8.44
2022-11-29T02:01:13.975Z,8.42
2022-11-29T02:02:13.854Z,8.41
2022-11-29T02:03:13.832Z,8.41
2022-11-29T02:04:13.854Z,8.41
2022-11-29T02:05:13.859Z,8.41
2022-11-29T02:06:13.801Z,8.41
2022-11-29T02:07:13.775Z,8.41
2022-11-29T02:08:13.823Z,8.42
2022-11-29T02:09:13.790Z,8.41
2022-11-29T02:10:13.764Z,8.42
2022-11-29T02:11:13.767Z,8.42
2022-11-29T02:12:13.715Z,8.44
2022-11-29T02:13:13.721Z,8.44
2022-11-29T02:14:13.756Z,8.44
2022-11-29T02:15:13.709Z,8.44
2022-11-29T02:16:13.782Z,8.45
2022-11-29T02:17:13.688Z,8.44
2022-11-29T02:18:13.736Z,8.46
2022-11-29T02:19:13.725Z,8.46
2022-11-29T02:20:13.688Z,8.46
2022-11-29T02:21:13.647Z,8.46
2022-11-29T02:22:13.644Z,8.46
2022-11-29T02:23:13.645Z,8.46
2022-11-29T02:24:13.667Z,8.49
2022-11-29T02:25:13.625Z,8.46
2022-11-29T02:26:13.591Z,8.48
2022-11-29T02:27:13.573Z,8.46
2022-11-29T02:28:13.609Z,8.46
2022-11-29T02:29:13.565Z,8.48
2022-11-29T02:30:13.552Z,8.48
2022-11-29T02:31:13.646Z,8.46
2022-11-29T02:32:13.505Z,8.46
2022-11-29T02:33:13.531Z,8.46
2022-11-29T02:34:13.517Z,8.46
2022-11-29T02:35:13.502Z,8.46
2022-11-29T02:36:13.482Z,8.48
2022-11-29T02:37:13.539Z,8.45
2022-11-29T02:38:13.509Z,8.46
2022-11-29T02:39:13.476Z,8.48
2022-11-29T02:40:13.470Z,8.46
2022-11-29T02:41:13.433Z,8.48
2022-11-29T02:42:13.426Z,8.46
2022-11-29T02:43:13.446Z,8.45
2022-11-29T02:44:13.406Z,8.48
2022-11-29T02:45:13.373Z,8.45
2022-11-29T02:46:13.392Z,8.48
2022-11-29T02:47:13.411Z,8.46
2022-11-29T02:48:13.370Z,8.46
2022-11-29T02:49:13.342Z,8.46
2022-11-29T02:50:13.317Z,8.49
2022-11-29T02:51:13.333Z,8.48
2022-11-29T02:52:13.361Z,8.48
2022-11-29T02:53:13.364Z,8.49
2022-11-29T02:54:13.311Z,8.48
2022-11-29T02:55:13.462Z,8.49
2022-11-29T02:56:13.310Z,8.49
2022-11-29T02:57:13.294Z,8.49
2022-11-29T02:58:13.262Z,8.49
2022-11-29T02:59:13.233Z,8.48
2022-11-29T03:00:13.239Z,8.46
2022-11-29T03:01:13.238Z,8.46
2022-11-29T03:02:13.240Z,8.49
2022-11-29T03:03:13.242Z,8.49
2022-11-29T03:04:13.196Z,8.49
2022-11-29T03:05:13.192Z,8.48
2022-11-29T03:06:13.164Z,8.46
2022-11-29T03:07:13.149Z,8.45
2022-11-29T03:08:13.154Z,8.48
2022-11-29T03:09:13.163Z,8.48
2022-11-29T03:10:13.134Z,8.46
2022-11-29T03:11:13.131Z,8.48
2022-11-29T03:12:13.128Z,8.48
2022-11-29T03:13:13.134Z,8.46
2022-11-29T03:14:13.054Z,8.46
2022-11-29T03:15:13.116Z,8.46
2022-11-29T03:16:13.083Z,8.46
2022-11-29T03:17:13.054Z,8.45
2022-11-29T03:18:13.075Z,8.45
2022-11-29T03:19:13.104Z,8.46
2022-11-29T03:20:13.020Z,8.45
2022-11-29T03:21:13.003Z,8.44
2022-11-29T03:22:12.978Z,8.44
2022-11-29T03:23:12.997Z,8.42
2022-11-29T03:24:12.964Z,8.44
2022-11-29T03:25:12.975Z,8.42
2022-11-29T03:26:12.953Z,8.42
2022-11-29T03:27:12.940Z,8.37
2022-11-29T03:28:13.016Z,8.37
2022-11-29T03:29:12.963Z,8.37
2022-11-29T03:30:12.913Z,8.34
2022-11-29T03:31:12.998Z,8.34
2022-11-29T03:32:12.897Z,8.33
2022-11-29T03:33:12.898Z,8.34
2022-11-29T03:34:12.897Z,8.34
2022-11-29T03:35:12.858Z,8.34
2022-11-29T03:36:12.875Z,8.34
2022-11-29T03:37:12.930Z,8.36
2022-11-29T03:38:12.856Z,8.37
2022-11-29T03:39:12.857Z,8.38
2022-11-29T03:40:12.804Z,8.34
2022-11-29T03:41:12.785Z,8.36
2022-11-29T03:42:12.772Z,8.36
2022-11-29T03:43:12.773Z,8.34
2022-11-29T03:44:12.770Z,8.33
2022-11-29T03:45:12.759Z,8.33
2022-11-29T03:46:12.740Z,8.36
2022-11-29T03:47:12.802Z,8.36
2022-11-29T03:48:12.778Z,8.38
2022-11-29T03:49:12.705Z,8.38
2022-11-29T03:50:12.705Z,8.41
2022-11-29T03:51:12.716Z,8.38
2022-11-29T03:52:12.682Z,8.37
2022-11-29T03:53:12.686Z,8.36
2022-11-29T03:54:12.647Z,8.34
2022-11-29T03:55:12.704Z,8.33
2022-11-29T03:56:12.617Z,8.33
2022-11-29T03:57:12.666Z,8.31
2022-11-29T03:58:12.626Z,8.31
2022-11-29T03:59:12.621Z,8.31
2022-11-29T04:00:12.635Z,8.30
2022-11-29T04:01:12.639Z,8.30
2022-11-29T04:02:12.618Z,8.31
2022-11-29T04:03:12.556Z,8.30
2022-11-29T04:04:12.553Z,8.31
2022-11-29T04:05:12.553Z,8.30
2022-11-29T04:06:12.528Z,8.31
2022-11-29T04:07:12.541Z,8.30
2022-11-29T04:08:12.502Z,8.28
2022-11-29T04:09:12.568Z,8.27
2022-11-29T04:10:12.519Z,8.26
2022-11-29T04:11:12.490Z,8.23
2022-11-29T04:12:12.466Z,8.23
2022-11-29T04:13:12.491Z,8.23
2022-11-29T04:14:12.476Z,8.23
2022-11-29T04:15:15.490Z,8.20
2022-11-29T04:16:12.493Z,8.19
2022-11-29T04:17:12.477Z,8.20
2022-11-29T04:18:12.409Z,8.18
2022-11-29T04:19:12.442Z,8.18
2022-11-29T04:20:12.418Z,8.16
2022-11-29T04:21:12.375Z,8.16
2022-11-29T04:22:12.364Z,8.13
2022-11-29T04:23:12.430Z,8.13
2022-11-29T04:24:12.392Z,8.12
2022-11-29T04:25:12.363Z,8.10
2022-11-29T04:26:12.354Z,8.10
2022-11-29T04:27:12.333Z,8.09
2022-11-29T04:28:12.294Z,8.10
2022-11-29T04:29:12.266Z,8.09
2022-11-29T04:30:12.292Z,8.09
2022-11-29T04:31:12.355Z,8.09
2022-11-29T04:32:12.268Z,8.09
2022-11-29T04:33:12.260Z,8.05
2022-11-29T04:34:12.242Z,8.05
2022-11-29T04:35:12.229Z,8.05
2022-11-29T04:36:12.231Z,8.05
2022-11-29T04:37:12.240Z,8.05
2022-11-29T04:38:12.219Z,8.05
2022-11-29T04:39:12.195Z,8.05
2022-11-29T04:40:12.177Z,8.03
2022-11-29T04:41:12.215Z,8.01
2022-11-29T04:42:12.147Z,8.03
2022-11-29T04:43:12.149Z,8.01
2022-11-29T04:44:12.147Z,8.01
2022-11-29T04:45:12.143Z,8.00
2022-11-29T04:46:12.128Z,8.01
2022-11-29T04:47:12.149Z,8.03
2022-11-29T04:48:12.089Z,8.01
2022-11-29T04:49:12.077Z,8.03
2022-11-29T04:50:12.053Z,8.03
2022-11-29T04:51:12.081Z,8.03
2022-11-29T04:52:12.057Z,8.03
2022-11-29T04:53:12.057Z,8.03
2022-11-29T04:54:12.060Z,8.03
2022-11-29T04:55:13.890Z,8.05
2022-11-29T04:56:12.010Z,8.05
2022-11-29T04:57:12.042Z,8.05
2022-11-29T04:58:12.012Z,8.03
2022-11-29T04:59:12.000Z,8.05
2022-11-29T05:00:12.001Z,8.05
2022-11-29T05:01:11.962Z,8.05
2022-11-29T05:02:11.930Z,8.03
2022-11-29T05:03:11.933Z,8.01
2022-11-29T05:04:11.920Z,7.97
2022-11-29T05:05:11.911Z,7.98
2022-11-29T05:06:11.914Z,7.95
2022-11-29T05:07:11.960Z,7.95
2022-11-29T05:08:11.889Z,7.93
2022-11-29T05:09:11.889Z,7.91
2022-11-29T05:10:11.927Z,7.87
2022-11-29T05:11:11.858Z,7.87
2022-11-29T05:12:11.853Z,7.85
2022-11-29T05:13:11.847Z,7.83
2022-11-29T05:14:11.823Z,7.83
2022-11-29T05:15:11.822Z,7.77
2022-11-29T05:16:11.834Z,7.76
2022-11-29T05:17:11.796Z,7.77
2022-11-29T05:18:11.782Z,7.79
2022-11-29T05:19:11.789Z,7.79
2022-11-29T05:20:11.785Z,7.82
2022-11-29T05:21:11.775Z,7.77
2022-11-29T05:22:11.732Z,7.80
2022-11-29T05:23:11.773Z,7.82
2022-11-29T05:24:11.704Z,7.82
2022-11-29T05:25:11.809Z,7.82
2022-11-29T05:26:11.713Z,7.83
2022-11-29T05:27:11.686Z,7.82
2022-11-29T05:28:11.643Z,7.82
2022-11-29T05:29:11.682Z,7.80
2022-11-29T05:30:11.665Z,7.80
2022-11-29T05:31:11.713Z,7.79
2022-11-29T05:32:11.626Z,7.79
2022-11-29T05:33:11.608Z,7.82
2022-11-29T05:34:11.631Z,7.83
2022-11-29T05:35:11.699Z,7.83
2022-11-29T05:36:11.603Z,7.87
2022-11-29T05:37:11.604Z,7.87
2022-11-29T05:38:11.584Z,7.87
2022-11-29T05:39:11.586Z,7.87
2022-11-29T05:40:11.547Z,7.88
2022-11-29T05:41:11.520Z,7.90
2022-11-29T05:42:11.560Z,7.88
2022-11-29T05:43:12.407Z,7.90
2022-11-29T05:44:11.525Z,7.88
2022-11-29T05:45:11.533Z,7.90
2022-11-29T05:46:11.551Z,7.88
2022-11-29T05:47:11.465Z,7.90
2022-11-29T05:48:11.448Z,7.88
2022-11-29T05:49:11.482Z,7.90
2022-11-29T05:50:11.465Z,7.91
2022-11-29T05:51:11.465Z,7.90
2022-11-29T05:52:11.565Z,7.91
2022-11-29T05:53:11.471Z,7.91
2022-11-29T05:54:11.555Z,7.94
2022-11-29T05:55:11.478Z,7.94
2022-11-29T05:56:11.554Z,7.93
2022-11-29T05:57:11.488Z,7.91
2022-11-29T05:58:11.395Z,7.87
2022-11-29T05:59:11.461Z,7.87
2022-11-29T06:00:11.488Z,7.85
2022-11-29T06:01:11.493Z,7.83
2022-11-29T06:02:11.601Z,7.83
2022-11-29T06:03:11.571Z,7.79
2022-11-29T06:04:14.737Z,7.80
2022-11-29T06:05:11.426Z,7.77
2022-11-29T06:06:11.453Z,7.76
2022-11-29T06:07:11.427Z,7.76
2022-11-29T06:08:11.425Z,7.75
2022-11-29T06:09:11.404Z,7.73
2022-11-29T06:10:11.357Z,7.75
2022-11-29T06:11:11.374Z,7.73
2022-11-29T06:12:11.352Z,7.76
2022-11-29T06:13:11.372Z,7.77
2022-11-29T06:14:11.364Z,7.82
2022-11-29T06:15:11.199Z,7.85
2022-11-29T06:16:11.419Z,7.88
2022-11-29T06:17:11.269Z,7.91
2022-11-29T06:18:11.254Z,7.91
2022-11-29T06:19:11.259Z,7.95
2022-11-29T06:20:11.230Z,7.97
2022-11-29T06:21:11.300Z,7.95
2022-11-29T06:22:11.218Z,7.98
2022-11-29T06:23:11.234Z,8.00
2022-11-29T06:24:11.662Z,8.01
2022-11-29T06:25:11.411Z,8.01
2022-11-29T06:26:11.548Z,8.01
2022-11-29T06:27:11.273Z,8.00
2022-11-29T06:28:11.425Z,7.98
2022-11-29T06:29:11.355Z,7.97
2022-11-29T06:30:11.275Z,7.95
2022-11-29T06:31:11.451Z,7.94
2022-11-29T06:32:11.185Z,7.93
2022-11-29T06:33:11.588Z,7.93
2022-11-29T06:34:11.009Z,7.93
2022-11-29T06:35:10.964Z,7.93
2022-11-29T06:36:10.967Z,7.93
2022-11-29T06:37:10.946Z,7.94
2022-11-29T06:38:10.945Z,7.93
2022-11-29T06:39:10.980Z,7.90
2022-11-29T06:40:10.902Z,7.88
2022-11-29T06:41:10.911Z,7.85
2022-11-29T06:42:10.914Z,7.82
2022-11-29T06:43:10.860Z,7.82
2022-11-29T06:44:10.900Z,7.79
2022-11-29T06:45:10.829Z,7.80
2022-11-29T06:46:10.892Z,7.80
2022-11-29T06:47:10.777Z,7.77
2022-11-29T06:48:10.795Z,7.80
2022-11-29T06:49:10.845Z,7.76
2022-11-29T06:50:10.789Z,7.77
2022-11-29T06:51:10.820Z,7.79
2022-11-29T06:52:10.755Z,7.79
2022-11-29T06:53:10.729Z,7.79
2022-11-29T06:54:10.768Z,7.79
2022-11-29T06:55:10.696Z,7.79
2022-11-29T06:56:10.756Z,7.77
2022-11-29T06:57:10.692Z,7.80
2022-11-29T06:58:10.697Z,7.80
2022-11-29T06:59:10.724Z,7.80
2022-11-29T07:00:10.689Z,7.83
2022-11-29T07:01:10.745Z,7.83
2022-11-29T07:02:10.690Z,7.85
2022-11-29T07:03:10.847Z,7.88
2022-11-29T07:04:10.662Z,7.88
2022-11-29T07:05:10.673Z,7.90
2022-11-29T07:06:10.590Z,7.88
2022-11-29T07:07:10.571Z,7.85
2022-11-29T07:08:10.578Z,7.83
2022-11-29T07:09:10.562Z,7.82
2022-11-29T07:10:14.715Z,7.82
2022-11-29T07:11:10.618Z,7.77
2022-11-29T07:12:10.531Z,7.79
2022-11-29T07:13:10.623Z,7.76
2022-11-29T07:14:10.499Z,7.75
2022-11-29T07:15:11.321Z,7.75
2022-11-29T07:16:10.561Z,7.73
2022-11-29T07:17:10.503Z,7.73
2022-11-29T07:18:10.517Z,7.73
2022-11-29T07:19:10.463Z,7.73
2022-11-29T07:20:10.450Z,7.75
2022-11-29T07:21:10.427Z,7.75
2022-11-29T07:22:10.414Z,7.75
2022-11-29T07:23:10.433Z,7.76
2022-11-29T07:24:10.422Z,7.77
2022-11-29T07:25:10.395Z,7.76
2022-11-29T07:26:10.462Z,7.77
2022-11-29T07:27:10.354Z,7.77
2022-11-29T07:28:10.405Z,7.79
2022-11-29T07:29:10.414Z,7.79
2022-11-29T07:30:10.377Z,7.79
2022-11-29T07:31:10.358Z,7.80
2022-11-29T07:32:10.393Z,7.82
2022-11-29T07:33:10.331Z,7.85
2022-11-29T07:34:10.325Z,7.87
2022-11-29T07:35:10.293Z,7.87
2022-11-29T07:36:10.260Z,7.88
2022-11-29T07:37:10.291Z,7.90
2022-11-29T07:38:10.307Z,7.91
2022-11-29T07:39:10.285Z,7.93
2022-11-29T07:40:10.250Z,7.91
2022-11-29T07:41:10.227Z,7.91
2022-11-29T07:42:10.265Z,7.93
2022-11-29T07:43:10.263Z,7.94
2022-11-29T07:44:10.184Z,7.94
2022-11-29T07:45:10.211Z,7.93
2022-11-29T07:46:10.166Z,7.93
2022-11-29T07:47:10.149Z,7.94
2022-11-29T07:48:10.168Z,7.95
2022-11-29T07:49:10.140Z,7.95
2022-11-29T07:50:10.133Z,7.95
2022-11-29T07:51:10.131Z,7.98
2022-11-29T07:52:10.173Z,7.98
2022-11-29T07:53:10.101Z,7.98
2022-11-29T07:54:10.086Z,7.98
2022-11-29T07:55:14.339Z,8.00
2022-11-29T07:56:10.137Z,8.00
2022-11-29T07:57:10.083Z,8.01
2022-11-29T07:58:10.044Z,8.03
2022-11-29T07:59:10.050Z,8.03
2022-11-29T08:00:10.065Z,8.03
2022-11-29T08:01:10.061Z,8.03
2022-11-29T08:02:11.809Z,8.05
2022-11-29T08:03:10.019Z,8.05
2022-11-29T08:04:10.007Z,8.08
2022-11-29T08:05:10.040Z,8.08
2022-11-29T08:06:10.004Z,8.09
2022-11-29T08:07:09.978Z,8.10
2022-11-29T08:08:09.991Z,8.10
2022-11-29T08:09:09.906Z,8.12
2022-11-29T08:10:09.941Z,8.13
2022-11-29T08:11:09.926Z,8.15
2022-11-29T08:12:09.938Z,8.15
2022-11-29T08:13:09.868Z,8.16
2022-11-29T08:14:09.912Z,8.19
2022-11-29T08:15:09.942Z,8.18
2022-11-29T08:16:10.045Z,8.19
2022-11-29T08:17:09.841Z,8.20
2022-11-29T08:18:09.912Z,8.23
2022-11-29T08:19:09.875Z,8.23
2022-11-29T08:20:09.945Z,8.23
2022-11-29T08:21:09.858Z,8.24
2022-11-29T08:22:09.837Z,8.23
2022-11-29T08:23:09.835Z,8.23
2022-11-29T08:24:09.817Z,8.23
2022-11-29T08:25:09.834Z,8.23
2022-11-29T08:26:09.782Z,8.23
2022-11-29T08:27:09.727Z,8.24
2022-11-29T08:28:09.750Z,8.24
2022-11-29T08:29:09.762Z,8.24
2022-11-29T08:30:09.734Z,8.26
2022-11-29T08:31:09.755Z,8.27
2022-11-29T08:32:09.713Z,8.28
2022-11-29T08:33:09.681Z,8.27
2022-11-29T08:34:09.678Z,8.28
2022-11-29T08:35:09.758Z,8.28
2022-11-29T08:36:09.727Z,8.28
2022-11-29T08:37:09.661Z,8.30
2022-11-29T08:38:09.717Z,8.30
2022-11-29T08:39:09.863Z,8.30
2022-11-29T08:40:09.639Z,8.28
2022-11-29T08:41:09.600Z,8.28
2022-11-29T08:42:09.635Z,8.30
2022-11-29T08:43:09.590Z,8.30
2022-11-29T08:44:09.623Z,8.31
2022-11-29T08:45:09.597Z,8.33
2022-11-29T08:46:12.505Z,8.34
2022-11-29T08:47:09.578Z,8.36
2022-11-29T08:48:09.559Z,8.37
2022-11-29T08:49:09.527Z,8.37
2022-11-29T08:50:09.530Z,8.41
2022-11-29T08:51:09.534Z,8.45
2022-11-29T08:52:09.521Z,8.44
2022-11-29T08:53:09.475Z,8.45
2022-11-29T08:54:09.491Z,8.46
2022-11-29T08:55:09.511Z,8.48
2022-11-29T08:56:41.636Z,8.49
2022-11-29T08:58:09.439Z,8.53
2022-11-29T08:59:09.380Z,8.55
2022-11-29T09:00:09.492Z,8.58
2022-11-29T09:01:09.524Z,8.58
2022-11-29T09:02:09.484Z,8.60
2022-11-29T09:03:09.415Z,8.61
2022-11-29T09:04:09.377Z,8.61
2022-11-29T09:05:09.415Z,8.64
2022-11-29T09:06:12.549Z,8.64
2022-11-29T09:07:09.344Z,8.64
2022-11-29T09:08:09.340Z,8.67
2022-11-29T09:09:09.333Z,8.66
2022-11-29T09:10:09.298Z,8.66
2022-11-29T09:11:09.815Z,8.67
2022-11-29T09:12:09.264Z,8.67
2022-11-29T09:13:09.253Z,8.66
2022-11-29T09:14:09.263Z,8.66
2022-11-29T09:15:09.230Z,8.64
2022-11-29T09:16:09.305Z,8.66
2022-11-29T09:17:09.258Z,8.66
2022-11-29T09:18:09.302Z,8.66
2022-11-29T09:19:09.206Z,8.64
2022-11-29T09:20:09.182Z,8.64
2022-11-29T09:21:09.193Z,8.66
2022-11-29T09:22:09.213Z,8.66
2022-11-29T09:23:09.182Z,8.66
2022-11-29T09:24:09.219Z,8.66
2022-11-29T09:25:09.118Z,8.67
2022-11-29T09:26:09.166Z,8.67
2022-11-29T09:27:09.100Z,8.69
2022-11-29T09:28:09.158Z,8.67
2022-11-29T09:29:09.091Z,8.67
2022-11-29T09:30:09.089Z,8.64
2022-11-29T09:31:09.079Z,8.63
2022-11-29T09:32:09.194Z,8.61
2022-11-29T09:33:09.057Z,8.60
2022-11-29T09:34:09.026Z,8.60
2022-11-29T09:35:09.007Z,8.56
2022-11-29T09:36:09.095Z,8.52
2022-11-29T09:37:09.034Z,8.49
2022-11-29T09:38:09.035Z,8.44
2022-11-29T09:39:09.004Z,8.44
2022-11-29T09:40:09.004Z,8.42
2022-11-29T09:41:09.052Z,8.42
2022-11-29T09:42:08.983Z,8.41
2022-11-29T09:43:08.967Z,8.38
2022-11-29T09:44:08.934Z,8.41
2022-11-29T09:45:08.933Z,8.38
2022-11-29T09:46:08.962Z,8.42
2022-11-29T09:47:08.896Z,8.42
2022-11-29T09:48:08.906Z,8.42
2022-11-29T09:49:08.892Z,8.41
2022-11-29T09:50:08.928Z,8.44
2022-11-29T09:51:08.949Z,8.42
2022-11-29T09:52:08.816Z,8.42
2022-11-29T09:53:08.879Z,8.46
2022-11-29T09:54:08.826Z,8.49
2022-11-29T09:55:08.792Z,8.48
2022-11-29T09:56:08.818Z,8.48
2022-11-29T09:57:10.835Z,8.51
2022-11-29T09:58:08.792Z,8.52
2022-11-29T09:59:08.812Z,8.55
2022-11-29T10:00:08.800Z,8.55
2022-11-29T10:01:08.811Z,8.60
2022-11-29T10:02:08.805Z,8.60
2022-11-29T10:03:08.724Z,8.63
2022-11-29T10:04:08.747Z,8.64
2022-11-29T10:05:08.721Z,8.63
2022-11-29T10:06:08.732Z,8.66
2022-11-29T10:07:08.699Z,8.64
2022-11-29T10:08:08.672Z,8.66
2022-11-29T10:09:08.697Z,8.67
2022-11-29T10:10:08.722Z,8.67
2022-11-29T10:11:08.669Z,8.69
2022-11-29T10:12:08.630Z,8.69
2022-11-29T10:13:08.706Z,8.70
2022-11-29T10:14:08.673Z,8.73
2022-11-29T10:15:08.600Z,8.71
2022-11-29T10:16:08.665Z,8.74
2022-11-29T10:17:08.604Z,8.74
2022-11-29T10:18:08.612Z,8.78
2022-11-29T10:19:08.580Z,8.78
2022-11-29T10:20:08.565Z,8.79
2022-11-29T10:21:08.544Z,8.79
2022-11-29T10:22:08.498Z,8.79
2022-11-29T10:23:08.592Z,8.81
2022-11-29T10:24:08.533Z,8.81
2022-11-29T10:25:08.502Z,8.79
2022-11-29T10:26:08.510Z,8.81
2022-11-29T10:27:08.533Z,8.79
2022-11-29T10:28:08.460Z,8.81
2022-11-29T10:29:08.466Z,8.81
2022-11-29T10:30:08.442Z,8.82
2022-11-29T10:31:08.485Z,8.79
2022-11-29T10:32:10.359Z,8.81
2022-11-29T10:33:08.421Z,8.81
2022-11-29T10:34:08.402Z,8.81
2022-11-29T10:35:08.407Z,8.81
2022-11-29T10:36:08.400Z,8.82
2022-11-29T10:37:08.373Z,8.82
2022-11-29T10:38:29.620Z,8.82
2022-11-29T10:39:14.183Z,8.82
2022-11-29T10:40:08.386Z,8.81
2022-11-29T10:41:08.341Z,8.79
2022-11-29T10:42:08.382Z,8.79
2022-11-29T10:43:08.345Z,8.78
2022-11-29T10:44:08.320Z,8.78
2022-11-29T10:45:08.283Z,8.79
2022-11-29T10:46:08.288Z,8.79
2022-11-29T10:47:11.060Z,8.78
2022-11-29T10:48:08.259Z,8.78
2022-11-29T10:49:08.285Z,8.78
2022-11-29T10:50:08.228Z,8.76
2022-11-29T10:51:08.227Z,8.78
2022-11-29T10:52:08.227Z,8.76
2022-11-29T10:53:08.236Z,8.74
2022-11-29T10:54:08.176Z,8.71
2022-11-29T10:55:08.178Z,8.73
2022-11-29T10:56:08.154Z,8.74
2022-11-29T10:57:08.208Z,8.73
2022-11-29T10:58:08.166Z,8.73
2022-11-29T10:59:08.201Z,8.74
2022-11-29T11:00:08.120Z,8.71
2022-11-29T11:01:08.414Z,8.73
2022-11-29T11:02:08.119Z,8.70
2022-11-29T11:03:08.127Z,8.71
2022-11-29T11:04:08.063Z,8.70
2022-11-29T11:05:08.135Z,8.71
2022-11-29T11:06:08.072Z,8.71
2022-11-29T11:07:08.082Z,8.73
2022-11-29T11:08:08.018Z,8.71
2022-11-29T11:09:08.006Z,8.69
2022-11-29T11:10:08.055Z,8.66
2022-11-29T11:11:08.031Z,8.66
2022-11-29T11:12:08.002Z,8.63
2022-11-29T11:13:08.008Z,8.63
2022-11-29T11:14:07.984Z,8.61
2022-11-29T11:15:07.951Z,8.64
2022-11-29T11:16:07.961Z,8.64
2022-11-29T11:17:08.025Z,8.66
2022-11-29T11:18:07.919Z,8.66
2022-11-29T11:19:07.961Z,8.67
2022-11-29T11:20:07.932Z,8.69
2022-11-29T11:21:07.902Z,8.67
2022-11-29T11:22:07.938Z,8.69
2022-11-29T11:23:07.913Z,8.70
2022-11-29T11:24:07.904Z,8.69
2022-11-29T11:25:07.877Z,8.70
2022-11-29T11:26:07.862Z,8.69
2022-11-29T11:27:07.834Z,8.67
2022-11-29T11:28:07.825Z,8.69
2022-11-29T11:29:07.839Z,8.69
2022-11-29T11:30:07.807Z,8.70
2022-11-29T11:31:07.881Z,8.70
2022-11-29T11:32:07.846Z,8.71
2022-11-29T11:33:07.850Z,8.70
2022-11-29T11:34:07.795Z,8.73
2022-11-29T11:35:07.790Z,8.73
2022-11-29T11:36:07.818Z,8.73
2022-11-29T11:37:07.730Z,8.73
2022-11-29T11:38:07.758Z,8.73
2022-11-29T11:39:07.764Z,8.69
2022-11-29T11:40:07.751Z,8.67
2022-11-29T11:41:07.744Z,8.67
2022-11-29T11:42:07.697Z,8.67
2022-11-29T11:43:07.672Z,8.66
2022-11-29T11:44:15.231Z,8.64
2022-11-29T11:45:07.680Z,8.64
2022-11-29T11:46:08.296Z,8.63
2022-11-29T11:47:07.666Z,8.66
2022-11-29T11:48:07.584Z,8.67
2022-11-29T11:49:07.639Z,8.69
2022-11-29T11:50:07.618Z,8.70
2022-11-29T11:51:07.604Z,8.71
2022-11-29T11:52:07.565Z,8.71
2022-11-29T11:53:07.630Z,8.74
2022-11-29T11:54:07.556Z,8.78
2022-11-29T11:55:07.565Z,8.78
2022-11-29T11:56:07.537Z,8.79
2022-11-29T11:57:07.542Z,8.81
2022-11-29T11:58:10.651Z,8.82
2022-11-29T11:59:07.505Z,8.84
2022-11-29T12:00:07.603Z,8.84
2022-11-29T12:01:07.523Z,8.84
2022-11-29T12:02:07.578Z,8.85
2022-11-29T12:03:07.594Z,8.87
2022-11-29T12:04:07.478Z,8.85
2022-11-29T12:05:07.436Z,8.87
2022-11-29T12:06:07.456Z,8.87
2022-11-29T12:07:07.423Z,8.85
2022-11-29T12:08:08.626Z,8.82
2022-11-29T12:09:07.459Z,8.85
2022-11-29T12:10:07.383Z,8.82
2022-11-29T12:11:07.783Z,8.84
2022-11-29T12:12:07.363Z,8.87
2022-11-29T12:13:07.399Z,8.85
2022-11-29T12:14:07.357Z,8.87
2022-11-29T12:15:07.384Z,8.88
2022-11-29T12:16:07.333Z,8.89
2022-11-29T12:17:07.322Z,8.89
2022-11-29T12:18:07.284Z,8.88
2022-11-29T12:19:07.285Z,8.88
2022-11-29T12:20:07.306Z,8.88
2022-11-29T12:21:07.419Z,8.89
2022-11-29T12:22:07.324Z,8.91
2022-11-29T12:23:07.276Z,8.89
2022-11-29T12:24:07.233Z,8.91
2022-11-29T12:25:07.235Z,8.92
2022-11-29T12:26:07.265Z,8.94
2022-11-29T12:27:07.273Z,8.99
2022-11-29T12:28:07.258Z,9.02
2022-11-29T12:29:07.193Z,9.04
2022-11-29T12:30:07.189Z,9.10
2022-11-29T12:31:07.294Z,9.14
2022-11-29T12:32:07.337Z,9.14
2022-11-29T12:33:07.195Z,9.18
2022-11-29T12:34:07.163Z,9.19
2022-11-29T12:35:07.170Z,9.21
2022-11-29T12:36:07.210Z,9.21
2022-11-29T12:37:07.090Z,9.23
2022-11-29T12:38:07.102Z,9.22
2022-11-29T12:39:07.099Z,9.25
2022-11-29T12:40:07.106Z,9.26
2022-11-29T12:41:07.050Z,9.28
2022-11-29T12:42:07.179Z,9.26
2022-11-29T12:43:07.091Z,9.28
2022-11-29T12:44:07.020Z,9.26
2022-11-29T12:45:07.053Z,9.25
2022-11-29T12:46:07.064Z,9.25
2022-11-29T12:47:34.640Z,9.26
2022-11-29T12:48:07.093Z,9.26
2022-11-29T12:49:06.954Z,9.26
2022-11-29T12:50:06.935Z,9.28
2022-11-29T12:51:07.002Z,9.29
2022-11-29T12:52:06.958Z,9.29
2022-11-29T12:53:07.001Z,9.28
2022-11-29T12:54:06.931Z,9.29
2022-11-29T12:55:06.924Z,9.29
2022-11-29T12:56:06.902Z,9.29
2022-11-29T12:57:06.927Z,9.28
2022-11-29T12:58:06.937Z,9.28
2022-11-29T12:59:06.897Z,9.26
2022-11-29T13:00:06.870Z,9.28
2022-11-29T13:01:06.858Z,9.29
2022-11-29T13:02:06.956Z,9.29
2022-11-29T13:03:06.887Z,9.28
2022-11-29T13:04:06.838Z,9.26
2022-11-29T13:05:06.841Z,9.28
2022-11-29T13:06:06.802Z,9.26
2022-11-29T13:07:06.865Z,9.29
2022-11-29T13:08:06.840Z,9.26
2022-11-29T13:09:06.800Z,9.25
2022-11-29T13:10:06.777Z,9.23
2022-11-29T13:11:07.290Z,9.25
2022-11-29T13:12:06.711Z,9.26
2022-11-29T13:13:06.726Z,9.22
2022-11-29T13:14:34.611Z,9.23
2022-11-29T13:15:06.720Z,9.23
2022-11-29T13:16:06.798Z,9.23
2022-11-29T13:17:06.753Z,9.25
2022-11-29T13:18:06.731Z,9.26
2022-11-29T13:19:06.680Z,9.28